Terminal Aerodrome Forecast
Issued by NWS Omaha/Valley, NE

Home | Current Version | Previous Version | Graphics & Text | Print | Product List | Glossary On
Versions: 1 2 3 4 5 6 7 8 9 10 11 12 13 14 15 16 17 18 19 20
000
FTUS43 KOAX 092320
TAFOFK
TAF
KOFK 092320Z 1000/1024 21006KT P6SM SCT250
     FM100400 26008KT P6SM SCT250
     FM100700 30010KT P6SM SCT250
     FM101700 31014G22KT P6SM SCT150 SCT250=

USA.gov is the U.S. government's official web portal to all federal, state and local government web resources and services.